createdAt,value
2022-11-27T00:00:08.249Z,4.20
2022-11-27T00:02:56.703Z,4.20
2022-11-27T00:05:53.193Z,4.20
2022-11-27T00:08:41.554Z,4.10
2022-11-27T00:11:32.935Z,4.10
2022-11-27T00:14:21.203Z,4.10
2022-11-27T00:17:09.541Z,4.10
2022-11-27T00:19:57.871Z,4.10
2022-11-27T00:22:46.170Z,4.00
2022-11-27T00:25:34.632Z,4.00
2022-11-27T00:28:24.295Z,4.00
2022-11-27T00:31:16.594Z,4.00
2022-11-27T00:34:07.971Z,3.90
2022-11-27T00:36:56.273Z,3.80
2022-11-27T00:39:44.641Z,3.80
2022-11-27T00:42:32.963Z,3.70
2022-11-27T00:45:22.700Z,3.70
2022-11-27T00:48:11.051Z,3.70
2022-11-27T00:51:01.830Z,3.70
2022-11-27T00:53:50.679Z,3.70
2022-11-27T00:56:40.582Z,3.70
2022-11-27T00:59:28.893Z,3.70
2022-11-27T01:02:18.623Z,3.70
2022-11-27T01:05:07.997Z,3.60
2022-11-27T01:07:56.445Z,3.50
2022-11-27T01:10:54.596Z,3.40
2022-11-27T01:13:43.753Z,3.30
2022-11-27T01:16:33.789Z,3.20
2022-11-27T01:19:23.720Z,3.10
2022-11-27T01:22:12.030Z,3.10
2022-11-27T01:25:00.380Z,3.10
2022-11-27T01:27:48.717Z,3.10
2022-11-27T01:30:38.857Z,3.20
2022-11-27T01:33:27.152Z,3.10
2022-11-27T01:36:17.383Z,3.00
2022-11-27T01:39:06.188Z,3.00
2022-11-27T01:41:54.490Z,3.00
2022-11-27T01:44:56.023Z,3.00
2022-11-27T01:47:47.857Z,2.90
2022-11-27T01:50:39.687Z,3.00
2022-11-27T01:53:29.638Z,3.00
2022-11-27T01:56:18.726Z,3.00
2022-11-27T01:59:07.893Z,3.00
2022-11-27T02:01:56.404Z,3.00
2022-11-27T02:04:44.799Z,2.90
2022-11-27T02:07:33.309Z,3.00
2022-11-27T02:10:24.135Z,3.00
2022-11-27T02:13:15.350Z,2.90
2022-11-27T02:16:17.761Z,2.90
2022-11-27T02:19:18.316Z,2.90
2022-11-27T02:22:16.299Z,2.80
2022-11-27T02:25:11.692Z,2.80
2022-11-27T02:28:20.925Z,2.80
2022-11-27T02:31:17.191Z,2.80
2022-11-27T02:34:15.483Z,2.80
2022-11-27T02:37:10.452Z,2.80
2022-11-27T02:40:03.939Z,2.80
2022-11-27T02:42:57.176Z,2.80
2022-11-27T02:45:49.597Z,2.80
2022-11-27T02:48:47.839Z,2.80
2022-11-27T02:51:39.136Z,2.70
2022-11-27T02:54:28.936Z,2.70
2022-11-27T02:57:18.597Z,2.70
2022-11-27T03:00:08.814Z,2.70
2022-11-27T03:03:01.613Z,2.70
2022-11-27T03:05:55.993Z,2.80
2022-11-27T03:08:51.224Z,2.80
2022-11-27T03:11:39.774Z,2.80
2022-11-27T03:14:28.187Z,2.80
2022-11-27T03:17:27.917Z,2.80
2022-11-27T03:20:20.532Z,2.80
2022-11-27T03:23:10.198Z,2.80
2022-11-27T03:25:58.566Z,2.80
2022-11-27T03:28:48.206Z,2.80
2022-11-27T03:31:37.346Z,2.80
2022-11-27T03:34:25.719Z,2.80
2022-11-27T03:37:14.138Z,2.80
2022-11-27T03:40:04.690Z,2.70
2022-11-27T03:43:04.629Z,2.70
2022-11-27T03:45:59.973Z,2.70
2022-11-27T03:48:54.880Z,2.70
2022-11-27T03:51:50.062Z,2.70
2022-11-27T03:54:51.022Z,2.70
2022-11-27T03:57:48.093Z,2.70
2022-11-27T04:00:40.708Z,2.60
2022-11-27T04:03:31.148Z,2.60
2022-11-27T04:06:19.532Z,2.50
2022-11-27T04:09:07.937Z,2.50
2022-11-27T04:11:56.278Z,2.40
2022-11-27T04:14:45.943Z,2.40
2022-11-27T04:17:34.588Z,2.40
2022-11-27T04:20:22.924Z,2.40
2022-11-27T04:23:11.462Z,2.40
2022-11-27T04:25:59.794Z,2.40
2022-11-27T04:28:48.095Z,2.40
2022-11-27T04:31:37.861Z,2.50
2022-11-27T04:34:26.216Z,2.50
2022-11-27T04:37:14.792Z,2.40
2022-11-27T04:40:03.633Z,2.40
2022-11-27T04:42:52.113Z,2.40
2022-11-27T04:45:41.264Z,2.40
2022-11-27T04:48:30.953Z,2.40
2022-11-27T04:51:19.292Z,2.30
2022-11-27T04:54:07.624Z,2.30
2022-11-27T04:56:55.965Z,2.30
2022-11-27T04:59:44.294Z,2.40
2022-11-27T05:02:32.751Z,2.40
2022-11-27T05:05:22.481Z,2.30
2022-11-27T05:08:10.798Z,2.20
2022-11-27T05:11:03.314Z,2.20
2022-11-27T05:14:12.137Z,2.20
2022-11-27T05:17:01.051Z,2.30
2022-11-27T05:19:49.651Z,2.20
2022-11-27T05:22:39.328Z,2.30
2022-11-27T05:25:27.689Z,2.30
2022-11-27T05:28:15.988Z,2.20
2022-11-27T05:31:04.429Z,2.30
2022-11-27T05:33:53.005Z,2.30
2022-11-27T05:36:41.592Z,2.30
2022-11-27T05:39:31.269Z,2.30
2022-11-27T05:42:19.538Z,2.20
2022-11-27T05:45:09.057Z,2.20
2022-11-27T05:47:57.403Z,2.10
2022-11-27T05:50:45.726Z,2.10
2022-11-27T05:53:34.732Z,2.10
2022-11-27T05:56:24.446Z,2.10
2022-11-27T05:59:12.838Z,2.10
2022-11-27T06:02:01.215Z,2.10
2022-11-27T06:04:49.528Z,2.10
2022-11-27T06:07:37.869Z,2.10
2022-11-27T06:10:26.272Z,2.20
2022-11-27T06:13:16.273Z,2.10
2022-11-27T06:16:09.238Z,2.10
2022-11-27T06:18:57.647Z,2.10
2022-11-27T06:21:46.661Z,2.20
2022-11-27T06:24:35.037Z,2.20
2022-11-27T06:27:23.525Z,2.20
2022-11-27T06:30:14.328Z,2.20
2022-11-27T06:33:02.753Z,2.10
2022-11-27T06:35:51.027Z,2.10
2022-11-27T06:38:40.014Z,2.10
2022-11-27T06:41:29.394Z,2.20
2022-11-27T06:44:17.711Z,2.20
2022-11-27T06:47:12.083Z,2.10
2022-11-27T06:50:00.386Z,2.10
2022-11-27T06:52:48.728Z,2.10
2022-11-27T06:55:39.309Z,2.10
2022-11-27T06:58:31.066Z,2.20
2022-11-27T07:01:20.231Z,2.20
2022-11-27T07:04:11.034Z,2.20
2022-11-27T07:06:59.844Z,2.20
2022-11-27T07:09:48.301Z,2.20
2022-11-27T07:12:36.601Z,2.20
2022-11-27T07:15:24.994Z,2.20
2022-11-27T07:18:13.384Z,2.20
2022-11-27T07:21:03.105Z,2.20
2022-11-27T07:23:51.874Z,2.20
2022-11-27T07:26:40.471Z,2.20
2022-11-27T07:29:28.819Z,2.30
2022-11-27T07:32:17.242Z,2.20
2022-11-27T07:35:06.007Z,2.30
2022-11-27T07:37:55.700Z,2.30
2022-11-27T07:40:44.007Z,2.30
2022-11-27T07:43:33.953Z,2.30
2022-11-27T07:46:25.408Z,2.40
2022-11-27T07:49:13.742Z,2.40
2022-11-27T07:52:02.025Z,2.50
2022-11-27T07:54:51.681Z,2.50
2022-11-27T07:57:40.005Z,2.50
2022-11-27T08:00:28.281Z,2.50
2022-11-27T08:03:17.346Z,2.50
2022-11-27T08:06:06.058Z,2.60
2022-11-27T08:08:56.606Z,2.60
2022-11-27T08:11:46.609Z,2.60
2022-11-27T08:14:34.961Z,2.70
2022-11-27T08:17:23.784Z,2.80
2022-11-27T08:20:12.453Z,2.90
2022-11-27T08:23:02.934Z,3.00
2022-11-27T08:25:51.658Z,3.10
2022-11-27T08:28:42.391Z,3.10
2022-11-27T08:31:30.840Z,3.10
2022-11-27T08:34:19.204Z,3.20
2022-11-27T08:37:08.330Z,3.30
2022-11-27T08:39:56.614Z,3.30
2022-11-27T08:42:44.935Z,3.30
2022-11-27T08:45:34.700Z,3.40
2022-11-27T08:48:23.766Z,3.40
2022-11-27T08:51:14.596Z,3.50
2022-11-27T08:54:03.044Z,3.50
2022-11-27T08:56:52.848Z,3.60
2022-11-27T08:59:41.254Z,3.70
2022-11-27T09:02:30.937Z,3.70
2022-11-27T09:05:19.435Z,3.80
2022-11-27T09:08:07.753Z,3.90
2022-11-27T09:11:00.163Z,3.90
2022-11-27T09:13:48.883Z,4.00
2022-11-27T09:16:37.435Z,4.10
2022-11-27T09:19:27.346Z,4.20
2022-11-27T09:22:15.674Z,4.20
2022-11-27T09:25:04.613Z,4.30
2022-11-27T09:27:52.913Z,4.40
2022-11-27T09:30:41.330Z,4.50
2022-11-27T09:33:31.804Z,4.70
2022-11-27T09:36:24.120Z,4.80
2022-11-27T09:39:13.809Z,4.80
2022-11-27T09:42:04.269Z,4.90
2022-11-27T09:44:58.698Z,5.00
2022-11-27T09:47:53.967Z,5.10
2022-11-27T09:50:50.268Z,5.20
2022-11-27T09:53:48.557Z,5.30
2022-11-27T09:56:37.557Z,5.30
2022-11-27T09:59:32.166Z,5.40
2022-11-27T10:02:27.503Z,5.50
2022-11-27T10:05:20.182Z,5.50
2022-11-27T10:08:23.352Z,5.50
2022-11-27T10:11:26.603Z,5.60
2022-11-27T10:14:34.338Z,5.60
2022-11-27T10:17:29.492Z,5.60
2022-11-27T10:20:28.774Z,5.60
2022-11-27T10:23:27.169Z,5.70
2022-11-27T10:26:20.428Z,5.70
2022-11-27T10:29:20.988Z,5.80
2022-11-27T10:32:46.797Z,5.80
2022-11-27T10:35:26.962Z,5.90
2022-11-27T10:38:20.453Z,6.00
2022-11-27T10:41:34.336Z,6.10
2022-11-27T10:44:29.916Z,6.10
2022-11-27T10:47:19.570Z,6.20
2022-11-27T10:50:14.503Z,6.30
2022-11-27T10:53:07.194Z,6.40
2022-11-27T10:56:21.002Z,6.50
2022-11-27T10:59:14.608Z,6.50
2022-11-27T11:02:05.773Z,6.60
2022-11-27T11:05:16.175Z,6.70
2022-11-27T11:08:05.876Z,6.80
2022-11-27T11:10:55.909Z,6.80
2022-11-27T11:13:47.075Z,6.80
2022-11-27T11:16:43.256Z,6.80
2022-11-27T11:19:35.603Z,6.80
2022-11-27T11:22:24.897Z,6.80
2022-11-27T11:25:17.980Z,6.90
2022-11-27T11:28:06.430Z,7.00
2022-11-27T11:30:58.474Z,7.00
2022-11-27T11:33:54.122Z,7.10
2022-11-27T11:36:56.257Z,7.20
2022-11-27T11:39:49.165Z,7.30
2022-11-27T11:42:38.455Z,7.40
2022-11-27T11:45:32.259Z,7.50
2022-11-27T11:48:24.877Z,7.50
2022-11-27T11:51:18.703Z,7.70
2022-11-27T11:54:21.704Z,7.70
2022-11-27T11:57:43.280Z,7.70
2022-11-27T12:00:58.416Z,7.70
2022-11-27T12:04:07.464Z,7.60
2022-11-27T12:07:08.025Z,7.60
2022-11-27T12:10:05.033Z,7.50
2022-11-27T12:13:04.820Z,7.60
2022-11-27T12:16:04.631Z,7.60
2022-11-27T12:19:15.032Z,7.50
2022-11-27T12:22:17.234Z,7.50
2022-11-27T12:25:22.185Z,7.60
2022-11-27T12:28:29.925Z,7.80
2022-11-27T12:31:27.121Z,7.80
2022-11-27T12:34:25.789Z,7.80
2022-11-27T12:37:29.264Z,7.80
2022-11-27T12:40:34.765Z,7.80
2022-11-27T12:43:26.503Z,7.80
2022-11-27T12:46:20.080Z,7.80
2022-11-27T12:49:15.911Z,7.80
2022-11-27T12:52:12.634Z,7.80
2022-11-27T12:55:06.660Z,7.90
2022-11-27T12:58:01.184Z,7.90
2022-11-27T13:00:50.858Z,7.90
2022-11-27T13:03:47.495Z,7.90
2022-11-27T13:06:46.992Z,7.90
2022-11-27T13:09:43.593Z,8.00
2022-11-27T13:12:38.755Z,8.00
2022-11-27T13:15:33.979Z,8.00
2022-11-27T13:18:31.108Z,8.10
2022-11-27T13:21:23.677Z,8.10
2022-11-27T13:24:14.052Z,8.20
2022-11-27T13:27:07.537Z,8.00
2022-11-27T13:29:58.831Z,7.90
2022-11-27T13:32:52.085Z,7.80
2022-11-27T13:35:42.682Z,7.80
2022-11-27T13:38:32.739Z,7.70
2022-11-27T13:41:22.774Z,7.60
2022-11-27T13:44:25.156Z,7.50
2022-11-27T13:47:16.482Z,7.60
2022-11-27T13:50:09.564Z,7.50
2022-11-27T13:53:00.656Z,7.40
2022-11-27T13:55:54.300Z,7.40
2022-11-27T13:58:43.864Z,7.30
2022-11-27T14:01:32.210Z,7.20
2022-11-27T14:04:20.600Z,7.20
2022-11-27T14:07:12.028Z,7.20
2022-11-27T14:10:09.956Z,7.20
2022-11-27T14:13:01.941Z,7.10
2022-11-27T14:16:01.888Z,7.10
2022-11-27T14:18:52.761Z,7.00
2022-11-27T14:21:44.156Z,7.00
2022-11-27T14:24:41.298Z,6.90
2022-11-27T14:27:35.970Z,6.90
2022-11-27T14:30:34.890Z,6.90
2022-11-27T14:33:25.469Z,6.90
2022-11-27T14:36:24.484Z,6.80
2022-11-27T14:39:23.280Z,6.80
2022-11-27T14:42:26.278Z,6.80
2022-11-27T14:45:18.949Z,6.70
2022-11-27T14:48:07.824Z,6.60
2022-11-27T14:50:57.853Z,6.60
2022-11-27T14:53:48.188Z,6.60
2022-11-27T14:56:40.455Z,6.60
2022-11-27T14:59:30.223Z,6.50
2022-11-27T15:02:24.635Z,6.50
2022-11-27T15:05:22.145Z,6.50
2022-11-27T15:08:11.392Z,6.40
2022-11-27T15:11:01.956Z,6.40
2022-11-27T15:13:54.981Z,6.30
2022-11-27T15:16:48.853Z,6.30
2022-11-27T15:19:38.976Z,6.30
2022-11-27T15:22:27.740Z,6.20
2022-11-27T15:25:30.701Z,6.20
2022-11-27T15:28:35.626Z,6.20
2022-11-27T15:31:26.887Z,6.20
2022-11-27T15:34:24.571Z,6.20
2022-11-27T15:37:24.083Z,6.30
2022-11-27T15:40:36.008Z,6.20
2022-11-27T15:43:24.334Z,6.20
2022-11-27T15:46:13.939Z,6.20
2022-11-27T15:49:02.393Z,6.20
2022-11-27T15:51:52.723Z,6.20
2022-11-27T15:54:41.312Z,6.20
2022-11-27T15:57:29.846Z,6.20
2022-11-27T16:00:19.334Z,6.20
2022-11-27T16:03:07.628Z,6.20
2022-11-27T16:05:56.076Z,6.30
2022-11-27T16:08:45.764Z,6.20
2022-11-27T16:11:34.227Z,6.20
2022-11-27T16:14:22.633Z,6.20
2022-11-27T16:17:11.818Z,6.20
2022-11-27T16:20:00.159Z,6.20
2022-11-27T16:22:48.459Z,6.20
2022-11-27T16:25:40.383Z,6.20
2022-11-27T16:28:30.302Z,6.20
2022-11-27T16:31:18.712Z,6.20
2022-11-27T16:34:07.214Z,6.20
2022-11-27T16:36:55.600Z,6.30
2022-11-27T16:39:43.885Z,6.30
2022-11-27T16:42:33.578Z,6.20
2022-11-27T16:45:21.945Z,6.30
2022-11-27T16:48:10.485Z,6.30
2022-11-27T16:51:03.390Z,6.30
2022-11-27T16:53:54.041Z,6.30
2022-11-27T16:56:42.670Z,6.30
2022-11-27T16:59:32.485Z,6.30
2022-11-27T17:02:20.917Z,6.30
2022-11-27T17:05:09.835Z,6.30
2022-11-27T17:07:58.261Z,6.30
2022-11-27T17:10:46.716Z,6.30
2022-11-27T17:13:35.005Z,6.30
2022-11-27T17:16:25.219Z,6.30
2022-11-27T17:19:14.515Z,6.30
2022-11-27T17:22:02.862Z,6.40
2022-11-27T17:24:51.823Z,6.40
2022-11-27T17:27:40.109Z,6.30
2022-11-27T17:30:28.476Z,6.40
2022-11-27T17:33:18.142Z,6.40
2022-11-27T17:36:07.705Z,6.40
2022-11-27T17:38:56.255Z,6.40
2022-11-27T17:41:45.566Z,6.40
2022-11-27T17:44:34.670Z,6.40
2022-11-27T17:47:23.166Z,6.40
2022-11-27T17:50:13.653Z,6.40
2022-11-27T17:53:02.018Z,6.40
2022-11-27T17:55:50.338Z,6.30
2022-11-27T17:58:39.428Z,6.30
2022-11-27T18:01:29.301Z,6.30
2022-11-27T18:04:17.809Z,6.30
2022-11-27T18:07:07.623Z,6.40
2022-11-27T18:09:57.192Z,6.40
2022-11-27T18:12:45.592Z,6.40
2022-11-27T18:15:35.214Z,6.30
2022-11-27T18:18:23.523Z,6.30
2022-11-27T18:21:18.025Z,6.30
2022-11-27T18:24:25.290Z,6.30
2022-11-27T18:27:15.270Z,6.30
2022-11-27T18:30:04.528Z,6.30
2022-11-27T18:32:52.999Z,6.30
2022-11-27T18:35:42.514Z,6.30
2022-11-27T18:38:31.801Z,6.30
2022-11-27T18:41:23.928Z,6.30
2022-11-27T18:44:12.281Z,6.30
2022-11-27T18:47:00.641Z,6.20
2022-11-27T18:49:49.247Z,6.20
2022-11-27T18:52:38.752Z,6.20
2022-11-27T18:55:27.195Z,6.20
2022-11-27T18:58:16.873Z,6.20
2022-11-27T19:01:08.127Z,6.20
2022-11-27T19:03:57.703Z,6.20
2022-11-27T19:06:46.545Z,6.30
2022-11-27T19:09:35.268Z,6.20
2022-11-27T19:12:23.589Z,6.20
2022-11-27T19:15:13.547Z,6.20
2022-11-27T19:18:01.891Z,6.20
2022-11-27T19:20:50.304Z,6.20
2022-11-27T19:23:39.442Z,6.10
2022-11-27T19:26:30.697Z,6.10
2022-11-27T19:29:18.871Z,6.10
2022-11-27T19:32:08.709Z,6.10
2022-11-27T19:34:57.143Z,6.10
2022-11-27T19:37:45.469Z,6.10
2022-11-27T19:40:38.613Z,6.10
2022-11-27T19:43:27.085Z,6.10
2022-11-27T19:46:16.568Z,6.10
2022-11-27T19:49:08.406Z,6.00
2022-11-27T19:51:56.762Z,6.00
2022-11-27T19:54:45.463Z,6.00
2022-11-27T19:57:33.957Z,5.90
2022-11-27T20:00:22.912Z,5.90
2022-11-27T20:03:11.268Z,6.00
2022-11-27T20:06:04.974Z,5.90
2022-11-27T20:08:59.530Z,5.90
2022-11-27T20:11:47.879Z,5.90
2022-11-27T20:14:36.205Z,6.00
2022-11-27T20:17:24.791Z,5.90
2022-11-27T20:20:13.845Z,5.90
2022-11-27T20:23:03.522Z,5.90
2022-11-27T20:25:51.896Z,5.90
2022-11-27T20:28:41.273Z,5.80
2022-11-27T20:31:32.125Z,5.90
2022-11-27T20:34:22.896Z,5.90
2022-11-27T20:37:11.284Z,5.90
2022-11-27T20:40:00.972Z,5.90
2022-11-27T20:42:49.283Z,5.90
2022-11-27T20:45:38.236Z,5.80
2022-11-27T20:48:26.545Z,5.80
2022-11-27T20:51:17.203Z,5.90
2022-11-27T20:54:05.800Z,5.90
2022-11-27T20:56:55.523Z,5.90
2022-11-27T20:59:44.046Z,5.90
2022-11-27T21:02:32.591Z,5.90
2022-11-27T21:05:21.218Z,5.90
2022-11-27T21:08:09.623Z,5.90
2022-11-27T21:10:58.062Z,5.90
2022-11-27T21:13:47.695Z,5.90
2022-11-27T21:16:38.191Z,5.90
2022-11-27T21:19:28.329Z,5.90
2022-11-27T21:22:16.682Z,5.90
2022-11-27T21:25:05.468Z,5.90
2022-11-27T21:27:55.845Z,5.90
2022-11-27T21:30:45.511Z,5.90
2022-11-27T21:33:34.314Z,5.90
2022-11-27T21:36:24.590Z,5.90
2022-11-27T21:39:14.397Z,5.90
2022-11-27T21:42:02.756Z,5.90
2022-11-27T21:44:51.053Z,5.80
2022-11-27T21:47:40.981Z,5.80
2022-11-27T21:50:29.457Z,5.80
2022-11-27T21:53:19.080Z,5.80
2022-11-27T21:56:09.120Z,5.80
2022-11-27T21:58:57.526Z,5.90
2022-11-27T22:01:46.381Z,5.90
2022-11-27T22:04:36.102Z,5.90
2022-11-27T22:07:24.624Z,5.90
2022-11-27T22:10:13.600Z,5.90
2022-11-27T22:13:02.129Z,5.90
2022-11-27T22:15:50.770Z,5.90
2022-11-27T22:18:39.234Z,5.80
2022-11-27T22:21:30.454Z,5.80
2022-11-27T22:24:19.908Z,5.80
2022-11-27T22:27:08.589Z,5.80
2022-11-27T22:29:56.900Z,5.80
2022-11-27T22:32:45.306Z,5.80
2022-11-27T22:35:33.686Z,5.80
2022-11-27T22:38:23.382Z,5.70
2022-11-27T22:41:12.407Z,5.70
2022-11-27T22:44:02.499Z,5.70
2022-11-27T22:46:51.008Z,5.70
2022-11-27T22:49:39.474Z,5.70
2022-11-27T22:52:29.272Z,5.70
2022-11-27T22:55:19.075Z,5.70
2022-11-27T22:58:07.393Z,5.70
2022-11-27T23:00:57.084Z,5.70
2022-11-27T23:03:45.741Z,5.70
2022-11-27T23:06:34.127Z,5.70
2022-11-27T23:09:22.544Z,5.70
2022-11-27T23:12:12.263Z,5.70
2022-11-27T23:15:00.579Z,5.70
2022-11-27T23:17:49.013Z,5.80
2022-11-27T23:20:41.486Z,5.80
2022-11-27T23:23:29.831Z,5.80
2022-11-27T23:26:20.789Z,5.80
2022-11-27T23:29:10.713Z,5.70
2022-11-27T23:31:59.098Z,5.70
2022-11-27T23:34:47.792Z,5.70
2022-11-27T23:37:36.107Z,5.70
2022-11-27T23:40:24.811Z,5.70
2022-11-27T23:43:13.105Z,5.80
2022-11-27T23:46:03.722Z,5.80
2022-11-27T23:48:52.144Z,5.70
2022-11-27T23:51:40.509Z,5.70
2022-11-27T23:54:28.912Z,5.80
2022-11-27T23:57:17.265Z,5.80
